sensor_id;sensor_type;location;lat;lon;timestamp;P1;durP1;ratioP1;P2;durP2;ratioP2
8040;SDS011;4063;48.140;10.250;2024-03-17T00:01:03;3.00;;;2.53;;
8040;SDS011;4063;48.140;10.250;2024-03-17T00:03:30;3.27;;;2.53;;
8040;SDS011;4063;48.140;10.250;2024-03-17T00:05:56;2.87;;;2.43;;
8040;SDS011;4063;48.140;10.250;2024-03-17T00:08:23;3.53;;;2.43;;
8040;SDS011;4063;48.140;10.250;2024-03-17T00:10:50;3.37;;;2.57;;
8040;SDS011;4063;48.140;10.250;2024-03-17T00:13:16;3.23;;;2.40;;
8040;SDS011;4063;48.140;10.250;2024-03-17T00:15:42;2.83;;;2.53;;
8040;SDS011;4063;48.140;10.250;2024-03-17T00:18:08;8.93;;;2.67;;
8040;SDS011;4063;48.140;10.250;2024-03-17T00:20:34;3.17;;;2.17;;
8040;SDS011;4063;48.140;10.250;2024-03-17T00:23:00;2.77;;;2.33;;
8040;SDS011;4063;48.140;10.250;2024-03-17T00:25:26;2.90;;;2.70;;
8040;SDS011;4063;48.140;10.250;2024-03-17T00:27:52;2.73;;;2.47;;
8040;SDS011;4063;48.140;10.250;2024-03-17T00:30:21;2.60;;;2.40;;
8040;SDS011;4063;48.140;10.250;2024-03-17T00:32:47;3.50;;;2.63;;
8040;SDS011;4063;48.140;10.250;2024-03-17T00:35:13;2.20;;;2.00;;
8040;SDS011;4063;48.140;10.250;2024-03-17T00:37:45;3.20;;;2.40;;
8040;SDS011;4063;48.140;10.250;2024-03-17T00:40:11;4.47;;;2.97;;
8040;SDS011;4063;48.140;10.250;2024-03-17T00:42:37;5.70;;;2.60;;
8040;SDS011;4063;48.140;10.250;2024-03-17T00:45:03;2.83;;;2.47;;
8040;SDS011;4063;48.140;10.250;2024-03-17T00:47:31;4.47;;;2.50;;
8040;SDS011;4063;48.140;10.250;2024-03-17T00:49:57;2.47;;;2.20;;
8040;SDS011;4063;48.140;10.250;2024-03-17T00:52:23;2.83;;;2.30;;
8040;SDS011;4063;48.140;10.250;2024-03-17T00:54:49;2.73;;;2.23;;
8040;SDS011;4063;48.140;10.250;2024-03-17T00:57:15;2.30;;;2.10;;
8040;SDS011;4063;48.140;10.250;2024-03-17T00:59:41;2.40;;;2.20;;
8040;SDS011;4063;48.140;10.250;2024-03-17T01:02:09;2.37;;;2.17;;
8040;SDS011;4063;48.140;10.250;2024-03-17T01:04:37;2.83;;;2.33;;
8040;SDS011;4063;48.140;10.250;2024-03-17T01:07:03;2.60;;;2.40;;
8040;SDS011;4063;48.140;10.250;2024-03-17T01:09:29;3.23;;;2.23;;
8040;SDS011;4063;48.140;10.250;2024-03-17T01:11:55;2.50;;;2.30;;
8040;SDS011;4063;48.140;10.250;2024-03-17T01:14:21;2.57;;;2.37;;
8040;SDS011;4063;48.140;10.250;2024-03-17T01:16:47;2.50;;;2.30;;
8040;SDS011;4063;48.140;10.250;2024-03-17T01:19:13;4.63;;;2.80;;
8040;SDS011;4063;48.140;10.250;2024-03-17T01:21:39;3.70;;;2.63;;
8040;SDS011;4063;48.140;10.250;2024-03-17T01:24:05;2.97;;;2.77;;
8040;SDS011;4063;48.140;10.250;2024-03-17T01:26:31;2.90;;;2.40;;
8040;SDS011;4063;48.140;10.250;2024-03-17T01:28:57;4.03;;;2.93;;
8040;SDS011;4063;48.140;10.250;2024-03-17T01:31:22;2.93;;;2.60;;
8040;SDS011;4063;48.140;10.250;2024-03-17T01:33:49;3.70;;;2.83;;
8040;SDS011;4063;48.140;10.250;2024-03-17T01:36:15;3.03;;;2.73;;
8040;SDS011;4063;48.140;10.250;2024-03-17T01:38:41;2.97;;;2.60;;
8040;SDS011;4063;48.140;10.250;2024-03-17T01:41:07;3.37;;;2.90;;
8040;SDS011;4063;48.140;10.250;2024-03-17T01:43:33;2.93;;;2.63;;
8040;SDS011;4063;48.140;10.250;2024-03-17T01:45:59;2.60;;;2.40;;
8040;SDS011;4063;48.140;10.250;2024-03-17T01:48:27;2.73;;;2.20;;
8040;SDS011;4063;48.140;10.250;2024-03-17T01:50:55;3.47;;;2.87;;
8040;SDS011;4063;48.140;10.250;2024-03-17T01:53:21;4.17;;;2.70;;
8040;SDS011;4063;48.140;10.250;2024-03-17T01:55:52;2.60;;;2.40;;
8040;SDS011;4063;48.140;10.250;2024-03-17T01:58:20;4.07;;;2.80;;
8040;SDS011;4063;48.140;10.250;2024-03-17T02:00:46;2.80;;;2.60;;
8040;SDS011;4063;48.140;10.250;2024-03-17T02:03:12;3.43;;;2.80;;
8040;SDS011;4063;48.140;10.250;2024-03-17T02:05:40;3.43;;;2.90;;
8040;SDS011;4063;48.140;10.250;2024-03-17T02:08:06;2.73;;;2.20;;
8040;SDS011;4063;48.140;10.250;2024-03-17T02:10:32;2.53;;;2.33;;
8040;SDS011;4063;48.140;10.250;2024-03-17T02:12:59;3.43;;;2.63;;
8040;SDS011;4063;48.140;10.250;2024-03-17T02:15:25;3.07;;;2.77;;
8040;SDS011;4063;48.140;10.250;2024-03-17T02:17:51;5.40;;;2.53;;
8040;SDS011;4063;48.140;10.250;2024-03-17T02:20:17;3.50;;;2.70;;
8040;SDS011;4063;48.140;10.250;2024-03-17T02:22:43;4.77;;;2.53;;
8040;SDS011;4063;48.140;10.250;2024-03-17T02:25:09;3.40;;;2.50;;
8040;SDS011;4063;48.140;10.250;2024-03-17T02:27:35;3.10;;;2.80;;
8040;SDS011;4063;48.140;10.250;2024-03-17T02:30:04;4.57;;;2.73;;
8040;SDS011;4063;48.140;10.250;2024-03-17T02:32:34;4.07;;;2.50;;
8040;SDS011;4063;48.140;10.250;2024-03-17T02:35:00;7.13;;;2.77;;
8040;SDS011;4063;48.140;10.250;2024-03-17T02:37:26;3.33;;;2.90;;
8040;SDS011;4063;48.140;10.250;2024-03-17T02:39:52;3.47;;;2.83;;
8040;SDS011;4063;48.140;10.250;2024-03-17T02:42:18;3.97;;;3.30;;
8040;SDS011;4063;48.140;10.250;2024-03-17T02:44:44;3.50;;;3.20;;
8040;SDS011;4063;48.140;10.250;2024-03-17T02:47:10;3.93;;;3.53;;
8040;SDS011;4063;48.140;10.250;2024-03-17T02:49:39;4.37;;;3.30;;
8040;SDS011;4063;48.140;10.250;2024-03-17T02:52:08;4.63;;;3.33;;
8040;SDS011;4063;48.140;10.250;2024-03-17T02:54:34;3.60;;;3.30;;
8040;SDS011;4063;48.140;10.250;2024-03-17T02:57:01;3.77;;;3.47;;
8040;SDS011;4063;48.140;10.250;2024-03-17T02:59:27;3.70;;;3.40;;
8040;SDS011;4063;48.140;10.250;2024-03-17T03:01:53;4.30;;;3.80;;
8040;SDS011;4063;48.140;10.250;2024-03-17T03:04:19;4.97;;;4.47;;
8040;SDS011;4063;48.140;10.250;2024-03-17T03:06:45;15.20;;;3.67;;
8040;SDS011;4063;48.140;10.250;2024-03-17T03:09:11;5.57;;;3.60;;
8040;SDS011;4063;48.140;10.250;2024-03-17T03:11:39;3.50;;;3.20;;
8040;SDS011;4063;48.140;10.250;2024-03-17T03:14:05;3.33;;;3.03;;
8040;SDS011;4063;48.140;10.250;2024-03-17T03:16:31;3.23;;;2.93;;
8040;SDS011;4063;48.140;10.250;2024-03-17T03:18:58;3.30;;;3.00;;
8040;SDS011;4063;48.140;10.250;2024-03-17T03:21:25;4.83;;;2.77;;
8040;SDS011;4063;48.140;10.250;2024-03-17T03:23:51;13.13;;;3.07;;
8040;SDS011;4063;48.140;10.250;2024-03-17T03:26:17;4.33;;;2.80;;
8040;SDS011;4063;48.140;10.250;2024-03-17T03:28:44;17.17;;;3.00;;
8040;SDS011;4063;48.140;10.250;2024-03-17T03:31:10;14.43;;;2.57;;
8040;SDS011;4063;48.140;10.250;2024-03-17T03:33:38;24.80;;;2.60;;
8040;SDS011;4063;48.140;10.250;2024-03-17T03:36:11;11.83;;;2.30;;
8040;SDS011;4063;48.140;10.250;2024-03-17T03:38:37;20.53;;;2.60;;
8040;SDS011;4063;48.140;10.250;2024-03-17T03:41:12;21.93;;;2.70;;
8040;SDS011;4063;48.140;10.250;2024-03-17T03:43:38;4.27;;;1.97;;
8040;SDS011;4063;48.140;10.250;2024-03-17T03:46:05;9.93;;;2.20;;
8040;SDS011;4063;48.140;10.250;2024-03-17T03:48:31;20.63;;;2.50;;
8040;SDS011;4063;48.140;10.250;2024-03-17T03:50:59;8.63;;;2.13;;
8040;SDS011;4063;48.140;10.250;2024-03-17T03:53:25;9.17;;;2.20;;
8040;SDS011;4063;48.140;10.250;2024-03-17T03:55:51;6.10;;;2.40;;
8040;SDS011;4063;48.140;10.250;2024-03-17T03:58:17;5.47;;;2.27;;
8040;SDS011;4063;48.140;10.250;2024-03-17T04:00:43;8.10;;;1.97;;
8040;SDS011;4063;48.140;10.250;2024-03-17T04:03:09;2.20;;;2.00;;
8040;SDS011;4063;48.140;10.250;2024-03-17T04:05:35;4.43;;;1.87;;
8040;SDS011;4063;48.140;10.250;2024-03-17T04:08:01;2.40;;;2.20;;
8040;SDS011;4063;48.140;10.250;2024-03-17T04:10:27;2.00;;;1.80;;
8040;SDS011;4063;48.140;10.250;2024-03-17T04:12:55;13.80;;;2.30;;
8040;SDS011;4063;48.140;10.250;2024-03-17T04:15:22;2.43;;;2.13;;
8040;SDS011;4063;48.140;10.250;2024-03-17T04:17:48;7.00;;;2.27;;
8040;SDS011;4063;48.140;10.250;2024-03-17T04:20:14;2.80;;;2.27;;
8040;SDS011;4063;48.140;10.250;2024-03-17T04:22:41;10.50;;;2.33;;
8040;SDS011;4063;48.140;10.250;2024-03-17T04:25:11;3.50;;;2.97;;
8040;SDS011;4063;48.140;10.250;2024-03-17T04:27:38;2.73;;;2.50;;
8040;SDS011;4063;48.140;10.250;2024-03-17T04:30:04;5.40;;;3.00;;
8040;SDS011;4063;48.140;10.250;2024-03-17T04:32:31;3.13;;;2.60;;
8040;SDS011;4063;48.140;10.250;2024-03-17T04:34:57;3.27;;;2.97;;
8040;SDS011;4063;48.140;10.250;2024-03-17T04:37:23;2.83;;;2.40;;
8040;SDS011;4063;48.140;10.250;2024-03-17T04:39:49;2.70;;;2.50;;
8040;SDS011;4063;48.140;10.250;2024-03-17T04:42:16;2.63;;;2.43;;
8040;SDS011;4063;48.140;10.250;2024-03-17T04:44:44;3.00;;;2.70;;
8040;SDS011;4063;48.140;10.250;2024-03-17T04:47:19;5.83;;;2.57;;
8040;SDS011;4063;48.140;10.250;2024-03-17T04:49:45;2.70;;;2.50;;
8040;SDS011;4063;48.140;10.250;2024-03-17T04:52:11;3.90;;;3.20;;
8040;SDS011;4063;48.140;10.250;2024-03-17T04:54:37;2.70;;;2.50;;
8040;SDS011;4063;48.140;10.250;2024-03-17T04:57:07;2.80;;;2.60;;
8040;SDS011;4063;48.140;10.250;2024-03-17T04:59:34;3.03;;;2.80;;
8040;SDS011;4063;48.140;10.250;2024-03-17T05:02:00;3.20;;;2.80;;
8040;SDS011;4063;48.140;10.250;2024-03-17T05:04:27;2.60;;;2.40;;
8040;SDS011;4063;48.140;10.250;2024-03-17T05:06:53;3.10;;;2.80;;
8040;SDS011;4063;48.140;10.250;2024-03-17T05:09:19;3.57;;;3.27;;
8040;SDS011;4063;48.140;10.250;2024-03-17T05:11:47;3.50;;;2.90;;
8040;SDS011;4063;48.140;10.250;2024-03-17T05:14:13;3.97;;;3.43;;
8040;SDS011;4063;48.140;10.250;2024-03-17T05:16:39;3.43;;;2.80;;
8040;SDS011;4063;48.140;10.250;2024-03-17T05:19:04;3.37;;;3.07;;
8040;SDS011;4063;48.140;10.250;2024-03-17T05:21:31;3.60;;;3.30;;
8040;SDS011;4063;48.140;10.250;2024-03-17T05:23:57;3.33;;;3.03;;
8040;SDS011;4063;48.140;10.250;2024-03-17T05:26:24;3.50;;;3.20;;
8040;SDS011;4063;48.140;10.250;2024-03-17T05:28:50;3.03;;;2.77;;
8040;SDS011;4063;48.140;10.250;2024-03-17T05:31:16;3.20;;;2.90;;
8040;SDS011;4063;48.140;10.250;2024-03-17T05:33:43;3.37;;;3.07;;
8040;SDS011;4063;48.140;10.250;2024-03-17T05:36:09;2.93;;;2.73;;
8040;SDS011;4063;48.140;10.250;2024-03-17T05:38:35;3.37;;;2.83;;
8040;SDS011;4063;48.140;10.250;2024-03-17T05:41:01;3.97;;;3.57;;
8040;SDS011;4063;48.140;10.250;2024-03-17T05:43:28;21.33;;;14.63;;
8040;SDS011;4063;48.140;10.250;2024-03-17T05:45:56;18.13;;;13.40;;
8040;SDS011;4063;48.140;10.250;2024-03-17T05:48:23;14.77;;;12.07;;
8040;SDS011;4063;48.140;10.250;2024-03-17T05:50:50;12.00;;;9.73;;
8040;SDS011;4063;48.140;10.250;2024-03-17T05:53:16;6.53;;;5.13;;
8040;SDS011;4063;48.140;10.250;2024-03-17T05:55:44;3.40;;;3.10;;
8040;SDS011;4063;48.140;10.250;2024-03-17T05:58:10;4.07;;;3.50;;
8040;SDS011;4063;48.140;10.250;2024-03-17T06:00:36;3.50;;;3.10;;
8040;SDS011;4063;48.140;10.250;2024-03-17T06:03:03;3.63;;;3.33;;
8040;SDS011;4063;48.140;10.250;2024-03-17T06:05:34;4.03;;;2.97;;
8040;SDS011;4063;48.140;10.250;2024-03-17T06:08:03;3.97;;;3.67;;
8040;SDS011;4063;48.140;10.250;2024-03-17T06:10:30;3.60;;;3.30;;
8040;SDS011;4063;48.140;10.250;2024-03-17T06:12:57;3.67;;;3.37;;
8040;SDS011;4063;48.140;10.250;2024-03-17T06:15:23;12.40;;;10.67;;
8040;SDS011;4063;48.140;10.250;2024-03-17T06:17:49;12.73;;;9.83;;
8040;SDS011;4063;48.140;10.250;2024-03-17T06:20:19;13.40;;;12.00;;
8040;SDS011;4063;48.140;10.250;2024-03-17T06:22:45;11.73;;;10.50;;
8040;SDS011;4063;48.140;10.250;2024-03-17T06:25:11;10.37;;;9.47;;
8040;SDS011;4063;48.140;10.250;2024-03-17T06:27:37;7.93;;;7.17;;
8040;SDS011;4063;48.140;10.250;2024-03-17T06:30:03;9.87;;;8.87;;
8040;SDS011;4063;48.140;10.250;2024-03-17T06:32:30;6.37;;;4.77;;
8040;SDS011;4063;48.140;10.250;2024-03-17T06:34:59;6.63;;;6.03;;
8040;SDS011;4063;48.140;10.250;2024-03-17T06:37:25;8.03;;;7.20;;
8040;SDS011;4063;48.140;10.250;2024-03-17T06:39:53;5.87;;;4.47;;
8040;SDS011;4063;48.140;10.250;2024-03-17T06:42:19;27.93;;;25.10;;
8040;SDS011;4063;48.140;10.250;2024-03-17T06:44:47;27.60;;;24.70;;
8040;SDS011;4063;48.140;10.250;2024-03-17T06:47:13;19.20;;;17.17;;
8040;SDS011;4063;48.140;10.250;2024-03-17T06:49:39;6.47;;;5.87;;
8040;SDS011;4063;48.140;10.250;2024-03-17T06:52:05;5.77;;;5.23;;
8040;SDS011;4063;48.140;10.250;2024-03-17T06:54:31;5.10;;;4.60;;
8040;SDS011;4063;48.140;10.250;2024-03-17T06:56:58;4.40;;;4.00;;
8040;SDS011;4063;48.140;10.250;2024-03-17T06:59:25;3.97;;;3.63;;
8040;SDS011;4063;48.140;10.250;2024-03-17T07:01:50;4.07;;;3.70;;
8040;SDS011;4063;48.140;10.250;2024-03-17T07:04:16;4.20;;;3.40;;
8040;SDS011;4063;48.140;10.250;2024-03-17T07:06:42;5.10;;;3.77;;
8040;SDS011;4063;48.140;10.250;2024-03-17T07:09:08;3.73;;;3.37;;
8040;SDS011;4063;48.140;10.250;2024-03-17T07:11:34;3.27;;;3.03;;
8040;SDS011;4063;48.140;10.250;2024-03-17T07:14:00;4.10;;;3.80;;
8040;SDS011;4063;48.140;10.250;2024-03-17T07:16:26;4.30;;;3.77;;
8040;SDS011;4063;48.140;10.250;2024-03-17T07:18:52;3.37;;;3.07;;
8040;SDS011;4063;48.140;10.250;2024-03-17T07:21:18;3.53;;;3.23;;
8040;SDS011;4063;48.140;10.250;2024-03-17T07:23:44;3.33;;;3.00;;
8040;SDS011;4063;48.140;10.250;2024-03-17T07:26:10;3.37;;;3.07;;
8040;SDS011;4063;48.140;10.250;2024-03-17T07:28:37;3.87;;;3.57;;
8040;SDS011;4063;48.140;10.250;2024-03-17T07:31:05;4.83;;;3.33;;
8040;SDS011;4063;48.140;10.250;2024-03-17T07:33:33;5.33;;;3.50;;
8040;SDS011;4063;48.140;10.250;2024-03-17T07:35:59;4.23;;;3.57;;
8040;SDS011;4063;48.140;10.250;2024-03-17T07:38:26;3.20;;;2.93;;
8040;SDS011;4063;48.140;10.250;2024-03-17T07:40:57;3.43;;;3.13;;
8040;SDS011;4063;48.140;10.250;2024-03-17T07:43:24;3.43;;;3.13;;
8040;SDS011;4063;48.140;10.250;2024-03-17T07:45:59;3.57;;;3.20;;
8040;SDS011;4063;48.140;10.250;2024-03-17T07:48:25;4.10;;;3.43;;
8040;SDS011;4063;48.140;10.250;2024-03-17T07:50:58;3.20;;;2.90;;
8040;SDS011;4063;48.140;10.250;2024-03-17T07:53:25;3.70;;;3.17;;
8040;SDS011;4063;48.140;10.250;2024-03-17T07:56:01;4.00;;;3.60;;
8040;SDS011;4063;48.140;10.250;2024-03-17T07:58:28;3.53;;;3.23;;
8040;SDS011;4063;48.140;10.250;2024-03-17T08:00:58;3.83;;;3.53;;
8040;SDS011;4063;48.140;10.250;2024-03-17T08:03:27;3.35;;;3.05;;
8040;SDS011;4063;48.140;10.250;2024-03-17T08:05:53;3.60;;;3.30;;
8040;SDS011;4063;48.140;10.250;2024-03-17T08:08:20;4.00;;;3.57;;
8040;SDS011;4063;48.140;10.250;2024-03-17T08:10:46;3.33;;;3.03;;
8040;SDS011;4063;48.140;10.250;2024-03-17T08:13:13;3.53;;;3.23;;
8040;SDS011;4063;48.140;10.250;2024-03-17T08:15:41;3.63;;;3.33;;
8040;SDS011;4063;48.140;10.250;2024-03-17T08:18:08;4.63;;;3.10;;
8040;SDS011;4063;48.140;10.250;2024-03-17T08:20:37;4.10;;;3.60;;
8040;SDS011;4063;48.140;10.250;2024-03-17T08:23:04;3.57;;;3.27;;
8040;SDS011;4063;48.140;10.250;2024-03-17T08:25:31;3.87;;;3.23;;
8040;SDS011;4063;48.140;10.250;2024-03-17T08:27:57;5.85;;;3.58;;
8040;SDS011;4063;48.140;10.250;2024-03-17T08:30:23;3.63;;;3.35;;
8040;SDS011;4063;48.140;10.250;2024-03-17T08:32:48;4.10;;;3.70;;
8040;SDS011;4063;48.140;10.250;2024-03-17T08:35:14;4.47;;;3.58;;
8040;SDS011;4063;48.140;10.250;2024-03-17T08:37:40;3.67;;;3.38;;
8040;SDS011;4063;48.140;10.250;2024-03-17T08:40:07;4.50;;;3.72;;
8040;SDS011;4063;48.140;10.250;2024-03-17T08:42:35;4.28;;;3.88;;
8040;SDS011;4063;48.140;10.250;2024-03-17T08:45:02;4.25;;;3.85;;
8040;SDS011;4063;48.140;10.250;2024-03-17T08:47:28;4.82;;;4.00;;
8040;SDS011;4063;48.140;10.250;2024-03-17T08:49:54;4.85;;;4.00;;
8040;SDS011;4063;48.140;10.250;2024-03-17T08:52:20;4.45;;;4.05;;
8040;SDS011;4063;48.140;10.250;2024-03-17T08:54:46;4.05;;;3.60;;
8040;SDS011;4063;48.140;10.250;2024-03-17T08:57:15;5.95;;;3.85;;
8040;SDS011;4063;48.140;10.250;2024-03-17T08:59:41;3.58;;;3.28;;
8040;SDS011;4063;48.140;10.250;2024-03-17T09:02:10;7.45;;;3.17;;
8040;SDS011;4063;48.140;10.250;2024-03-17T09:04:37;3.33;;;2.90;;
8040;SDS011;4063;48.140;10.250;2024-03-17T09:07:03;4.03;;;2.65;;
8040;SDS011;4063;48.140;10.250;2024-03-17T09:09:29;5.80;;;3.05;;
8040;SDS011;4063;48.140;10.250;2024-03-17T09:11:55;3.38;;;2.85;;
8040;SDS011;4063;48.140;10.250;2024-03-17T09:14:21;3.95;;;3.00;;
8040;SDS011;4063;48.140;10.250;2024-03-17T09:16:47;2.92;;;2.63;;
8040;SDS011;4063;48.140;10.250;2024-03-17T09:19:13;3.00;;;2.70;;
8040;SDS011;4063;48.140;10.250;2024-03-17T09:21:39;5.47;;;2.58;;
8040;SDS011;4063;48.140;10.250;2024-03-17T09:24:06;3.80;;;2.70;;
8040;SDS011;4063;48.140;10.250;2024-03-17T09:26:36;4.00;;;2.10;;
8040;SDS011;4063;48.140;10.250;2024-03-17T09:29:05;2.50;;;2.03;;
8040;SDS011;4063;48.140;10.250;2024-03-17T09:31:31;3.40;;;2.50;;
8040;SDS011;4063;48.140;10.250;2024-03-17T09:34:00;3.05;;;2.10;;
8040;SDS011;4063;48.140;10.250;2024-03-17T09:36:26;3.70;;;2.17;;
8040;SDS011;4063;48.140;10.250;2024-03-17T09:38:52;2.45;;;2.10;;
8040;SDS011;4063;48.140;10.250;2024-03-17T09:41:22;3.03;;;1.90;;
8040;SDS011;4063;48.140;10.250;2024-03-17T09:43:49;3.83;;;2.13;;
8040;SDS011;4063;48.140;10.250;2024-03-17T09:46:16;2.70;;;1.70;;
8040;SDS011;4063;48.140;10.250;2024-03-17T09:48:43;2.88;;;1.90;;
8040;SDS011;4063;48.140;10.250;2024-03-17T09:51:10;2.25;;;1.80;;
8040;SDS011;4063;48.140;10.250;2024-03-17T09:53:39;4.75;;;2.00;;
8040;SDS011;4063;48.140;10.250;2024-03-17T09:56:17;5.63;;;2.13;;
8040;SDS011;4063;48.140;10.250;2024-03-17T09:58:44;5.00;;;2.20;;
8040;SDS011;4063;48.140;10.250;2024-03-17T10:01:10;3.63;;;2.25;;
8040;SDS011;4063;48.140;10.250;2024-03-17T10:06:06;2.95;;;1.88;;
8040;SDS011;4063;48.140;10.250;2024-03-17T10:08:32;3.60;;;2.10;;
8040;SDS011;4063;48.140;10.250;2024-03-17T10:10:59;1.70;;;1.60;;
8040;SDS011;4063;48.140;10.250;2024-03-17T10:13:25;4.40;;;2.00;;
8040;SDS011;4063;48.140;10.250;2024-03-17T10:15:52;6.25;;;2.42;;
8040;SDS011;4063;48.140;10.250;2024-03-17T10:18:21;3.30;;;1.83;;
8040;SDS011;4063;48.140;10.250;2024-03-17T10:20:48;3.87;;;2.00;;
8040;SDS011;4063;48.140;10.250;2024-03-17T10:23:21;3.20;;;1.98;;
8040;SDS011;4063;48.140;10.250;2024-03-17T10:25:47;3.42;;;1.73;;
8040;SDS011;4063;48.140;10.250;2024-03-17T10:28:14;1.67;;;1.58;;
8040;SDS011;4063;48.140;10.250;2024-03-17T10:30:41;3.80;;;1.85;;
8040;SDS011;4063;48.140;10.250;2024-03-17T10:33:19;3.40;;;1.88;;
8040;SDS011;4063;48.140;10.250;2024-03-17T10:35:47;3.92;;;1.95;;
8040;SDS011;4063;48.140;10.250;2024-03-17T10:38:13;5.20;;;1.73;;
8040;SDS011;4063;48.140;10.250;2024-03-17T10:40:42;3.63;;;1.90;;
8040;SDS011;4063;48.140;10.250;2024-03-17T10:43:08;3.72;;;2.17;;
8040;SDS011;4063;48.140;10.250;2024-03-17T10:45:36;7.88;;;2.15;;
8040;SDS011;4063;48.140;10.250;2024-03-17T10:48:07;2.55;;;1.73;;
8040;SDS011;4063;48.140;10.250;2024-03-17T10:50:35;3.72;;;2.05;;
8040;SDS011;4063;48.140;10.250;2024-03-17T10:53:02;6.10;;;2.05;;
8040;SDS011;4063;48.140;10.250;2024-03-17T10:55:28;4.00;;;1.80;;
8040;SDS011;4063;48.140;10.250;2024-03-17T10:57:57;5.25;;;1.95;;
8040;SDS011;4063;48.140;10.250;2024-03-17T11:00:25;7.00;;;1.70;;
8040;SDS011;4063;48.140;10.250;2024-03-17T11:02:54;6.50;;;1.83;;
8040;SDS011;4063;48.140;10.250;2024-03-17T11:05:21;2.95;;;1.60;;
8040;SDS011;4063;48.140;10.250;2024-03-17T11:07:48;3.17;;;1.77;;
8040;SDS011;4063;48.140;10.250;2024-03-17T11:10:15;2.28;;;1.50;;
8040;SDS011;4063;48.140;10.250;2024-03-17T11:12:45;5.57;;;2.08;;
8040;SDS011;4063;48.140;10.250;2024-03-17T11:17:48;3.72;;;1.60;;
8040;SDS011;4063;48.140;10.250;2024-03-17T11:20:19;5.60;;;2.20;;
8040;SDS011;4063;48.140;10.250;2024-03-17T11:22:50;5.13;;;2.30;;
8040;SDS011;4063;48.140;10.250;2024-03-17T11:27:52;4.80;;;2.60;;
8040;SDS011;4063;48.140;10.250;2024-03-17T11:33:02;3.47;;;1.80;;
8040;SDS011;4063;48.140;10.250;2024-03-17T11:35:29;2.75;;;1.83;;
8040;SDS011;4063;48.140;10.250;2024-03-17T11:37:55;3.88;;;1.70;;
8040;SDS011;4063;48.140;10.250;2024-03-17T11:40:23;1.95;;;1.40;;
8040;SDS011;4063;48.140;10.250;2024-03-17T11:43:01;2.40;;;1.77;;
8040;SDS011;4063;48.140;10.250;2024-03-17T11:45:28;2.47;;;1.75;;
8040;SDS011;4063;48.140;10.250;2024-03-17T11:47:54;2.72;;;1.38;;
8040;SDS011;4063;48.140;10.250;2024-03-17T11:50:20;2.60;;;1.77;;
8040;SDS011;4063;48.140;10.250;2024-03-17T11:52:46;3.38;;;1.70;;
8040;SDS011;4063;48.140;10.250;2024-03-17T11:55:22;3.50;;;1.70;;
8040;SDS011;4063;48.140;10.250;2024-03-17T11:57:54;4.50;;;1.65;;
8040;SDS011;4063;48.140;10.250;2024-03-17T12:00:21;3.47;;;1.60;;
8040;SDS011;4063;48.140;10.250;2024-03-17T12:02:48;4.60;;;1.58;;
8040;SDS011;4063;48.140;10.250;2024-03-17T12:05:14;3.08;;;1.63;;
8040;SDS011;4063;48.140;10.250;2024-03-17T12:07:44;4.18;;;1.65;;
8040;SDS011;4063;48.140;10.250;2024-03-17T12:10:10;4.43;;;2.00;;
8040;SDS011;4063;48.140;10.250;2024-03-17T12:12:38;6.18;;;1.60;;
8040;SDS011;4063;48.140;10.250;2024-03-17T12:15:15;3.10;;;1.30;;
8040;SDS011;4063;48.140;10.250;2024-03-17T12:17:41;4.28;;;1.65;;
8040;SDS011;4063;48.140;10.250;2024-03-17T12:20:16;3.50;;;1.75;;
8040;SDS011;4063;48.140;10.250;2024-03-17T12:22:42;3.47;;;1.73;;
8040;SDS011;4063;48.140;10.250;2024-03-17T12:25:09;3.75;;;1.70;;
8040;SDS011;4063;48.140;10.250;2024-03-17T12:27:42;4.32;;;1.98;;
8040;SDS011;4063;48.140;10.250;2024-03-17T12:30:09;3.17;;;1.50;;
8040;SDS011;4063;48.140;10.250;2024-03-17T12:32:35;4.38;;;1.80;;
8040;SDS011;4063;48.140;10.250;2024-03-17T12:35:01;6.32;;;1.75;;
8040;SDS011;4063;48.140;10.250;2024-03-17T12:37:28;2.72;;;1.35;;
8040;SDS011;4063;48.140;10.250;2024-03-17T12:39:59;3.92;;;1.60;;
8040;SDS011;4063;48.140;10.250;2024-03-17T12:42:28;5.22;;;2.13;;
8040;SDS011;4063;48.140;10.250;2024-03-17T12:47:21;4.78;;;1.92;;
8040;SDS011;4063;48.140;10.250;2024-03-17T12:49:48;4.72;;;1.60;;
8040;SDS011;4063;48.140;10.250;2024-03-17T12:52:20;3.72;;;1.70;;
8040;SDS011;4063;48.140;10.250;2024-03-17T13:00:45;5.13;;;1.50;;
8040;SDS011;4063;48.140;10.250;2024-03-17T13:03:21;3.40;;;1.77;;
8040;SDS011;4063;48.140;10.250;2024-03-17T13:05:49;2.58;;;1.52;;
8040;SDS011;4063;48.140;10.250;2024-03-17T13:08:15;3.50;;;1.65;;
8040;SDS011;4063;48.140;10.250;2024-03-17T13:10:41;4.72;;;1.70;;
8040;SDS011;4063;48.140;10.250;2024-03-17T13:13:09;3.42;;;1.70;;
8040;SDS011;4063;48.140;10.250;2024-03-17T13:15:37;2.50;;;1.40;;
8040;SDS011;4063;48.140;10.250;2024-03-17T13:18:03;4.22;;;1.58;;
8040;SDS011;4063;48.140;10.250;2024-03-17T13:20:30;3.53;;;1.90;;
8040;SDS011;4063;48.140;10.250;2024-03-17T13:22:56;4.60;;;1.52;;
8040;SDS011;4063;48.140;10.250;2024-03-17T13:25:26;3.78;;;1.80;;
8040;SDS011;4063;48.140;10.250;2024-03-17T13:27:54;4.10;;;1.70;;
8040;SDS011;4063;48.140;10.250;2024-03-17T13:30:21;3.33;;;1.55;;
8040;SDS011;4063;48.140;10.250;2024-03-17T13:32:49;3.08;;;1.48;;
8040;SDS011;4063;48.140;10.250;2024-03-17T13:35:21;5.40;;;1.70;;
8040;SDS011;4063;48.140;10.250;2024-03-17T13:37:48;4.50;;;1.83;;
8040;SDS011;4063;48.140;10.250;2024-03-17T13:40:15;4.05;;;1.60;;
8040;SDS011;4063;48.140;10.250;2024-03-17T13:42:43;2.53;;;1.42;;
8040;SDS011;4063;48.140;10.250;2024-03-17T13:45:12;3.35;;;1.63;;
8040;SDS011;4063;48.140;10.250;2024-03-17T13:47:39;4.30;;;1.77;;
8040;SDS011;4063;48.140;10.250;2024-03-17T13:50:05;4.65;;;1.88;;
8040;SDS011;4063;48.140;10.250;2024-03-17T13:52:39;3.72;;;1.80;;
8040;SDS011;4063;48.140;10.250;2024-03-17T13:55:05;3.95;;;2.40;;
8040;SDS011;4063;48.140;10.250;2024-03-17T13:57:34;4.13;;;1.70;;
8040;SDS011;4063;48.140;10.250;2024-03-17T14:00:00;6.38;;;2.60;;
8040;SDS011;4063;48.140;10.250;2024-03-17T14:02:27;4.90;;;2.88;;
8040;SDS011;4063;48.140;10.250;2024-03-17T14:04:53;2.65;;;1.58;;
8040;SDS011;4063;48.140;10.250;2024-03-17T14:07:19;2.63;;;1.65;;
8040;SDS011;4063;48.140;10.250;2024-03-17T14:09:46;6.07;;;1.80;;
8040;SDS011;4063;48.140;10.250;2024-03-17T14:12:12;4.85;;;1.58;;
8040;SDS011;4063;48.140;10.250;2024-03-17T14:14:38;9.15;;;2.08;;
8040;SDS011;4063;48.140;10.250;2024-03-17T14:17:04;2.67;;;1.60;;
8040;SDS011;4063;48.140;10.250;2024-03-17T14:19:31;5.05;;;1.77;;
8040;SDS011;4063;48.140;10.250;2024-03-17T14:21:57;3.33;;;1.48;;
8040;SDS011;4063;48.140;10.250;2024-03-17T14:24:26;6.97;;;2.05;;
8040;SDS011;4063;48.140;10.250;2024-03-17T14:26:53;2.95;;;1.65;;
8040;SDS011;4063;48.140;10.250;2024-03-17T14:29:19;3.47;;;1.58;;
8040;SDS011;4063;48.140;10.250;2024-03-17T14:31:45;2.78;;;1.50;;
8040;SDS011;4063;48.140;10.250;2024-03-17T14:34:11;3.88;;;1.67;;
8040;SDS011;4063;48.140;10.250;2024-03-17T14:36:37;5.03;;;1.67;;
8040;SDS011;4063;48.140;10.250;2024-03-17T14:39:03;5.00;;;1.90;;
8040;SDS011;4063;48.140;10.250;2024-03-17T14:41:30;3.40;;;1.65;;
8040;SDS011;4063;48.140;10.250;2024-03-17T14:43:56;4.97;;;1.80;;
8040;SDS011;4063;48.140;10.250;2024-03-17T14:46:23;3.42;;;1.60;;
8040;SDS011;4063;48.140;10.250;2024-03-17T14:48:49;3.08;;;1.50;;
8040;SDS011;4063;48.140;10.250;2024-03-17T14:51:16;5.97;;;2.15;;
8040;SDS011;4063;48.140;10.250;2024-03-17T14:53:42;4.95;;;2.95;;
8040;SDS011;4063;48.140;10.250;2024-03-17T14:56:13;2.72;;;1.77;;
8040;SDS011;4063;48.140;10.250;2024-03-17T14:58:39;4.13;;;1.92;;
8040;SDS011;4063;48.140;10.250;2024-03-17T15:01:05;3.83;;;1.60;;
8040;SDS011;4063;48.140;10.250;2024-03-17T15:03:34;4.97;;;1.73;;
8040;SDS011;4063;48.140;10.250;2024-03-17T15:06:00;3.33;;;1.70;;
8040;SDS011;4063;48.140;10.250;2024-03-17T15:08:26;4.35;;;1.75;;
8040;SDS011;4063;48.140;10.250;2024-03-17T15:10:53;4.22;;;1.70;;
8040;SDS011;4063;48.140;10.250;2024-03-17T15:13:19;2.90;;;1.33;;
8040;SDS011;4063;48.140;10.250;2024-03-17T15:15:45;3.47;;;1.48;;
8040;SDS011;4063;48.140;10.250;2024-03-17T15:18:12;4.13;;;1.90;;